JUDG35 YBOK-YBOK
Flight info
| Callsign | JUDG35 |
|---|---|
| Flight time | 0h 7m |
| Altitude | 3000 |
| Route | DCT |
| Aircraft | H60/M-SDFGRY/LB1 |
Departure
| Time | 2026-04-19 09:19 |
|---|---|
| Airport | Oakey Army Aviation Centre (YBOK) |
Arrival
| Time | 2026-04-19 09:27 |
|---|---|
| Airport | Oakey Army Aviation Centre (YBOK) |
| Time | Latitude | Longitude | Altitude | Speed | Heading |
|---|---|---|---|---|---|
| 2026-04-19 09:10 | -27.41319 | 151.73713 | 1333 ft | 0 kts | 280° |
| 2026-04-19 09:17 | -27.41315 | 151.73684 | 1333 ft | 9 kts | 278° |
| 2026-04-19 09:17 | -27.41309 | 151.73561 | 1333 ft | 27 kts | 271° |
| 2026-04-19 09:18 | -27.41286 | 151.73478 | 1333 ft | 5 kts | 278° |
| 2026-04-19 09:18 | -27.41273 | 151.73450 | 1333 ft | 4 kts | 5° |
| 2026-04-19 09:18 | -27.41251 | 151.73454 | 1333 ft | 3 kts | 9° |
| 2026-04-19 09:18 | -27.41215 | 151.73459 | 1333 ft | 8 kts | 1° |
| 2026-04-19 09:19 | -27.41142 | 151.73473 | 1333 ft | 12 kts | 13° |
| 2026-04-19 09:19 | -27.41076 | 151.73505 | 1331 ft | 10 kts | 33° |
| 2026-04-19 09:19 | -27.41087 | 151.73662 | 1475 ft | 51 kts | 104° |
| 2026-04-19 09:19 | -27.41247 | 151.74284 | 2092 ft | 107 kts | 110° |
| 2026-04-19 09:20 | -27.41525 | 151.75180 | 2542 ft | 134 kts | 113° |
| 2026-04-19 09:20 | -27.41853 | 151.76161 | 2556 ft | 132 kts | 113° |
| 2026-04-19 09:20 | -27.42179 | 151.77145 | 2541 ft | 135 kts | 111° |
| 2026-04-19 09:20 | -27.42465 | 151.78152 | 2490 ft | 138 kts | 102° |
| 2026-04-19 09:21 | -27.41915 | 151.78865 | 2308 ft | 135 kts | 2° |
| 2026-04-19 09:21 | -27.40993 | 151.79092 | 2297 ft | 137 kts | 7° |
| 2026-04-19 09:21 | -27.40076 | 151.79360 | 2342 ft | 137 kts | 9° |
| 2026-04-19 09:21 | -27.39151 | 151.79546 | 2355 ft | 132 kts | 356° |
| 2026-04-19 09:22 | -27.38249 | 151.79505 | 2742 ft | 127 kts | 344° |
| 2026-04-19 09:22 | -27.37434 | 151.79149 | 2638 ft | 130 kts | 334° |
| 2026-04-19 09:22 | -27.36577 | 151.78821 | 2649 ft | 131 kts | 336° |
| 2026-04-19 09:22 | -27.35721 | 151.78487 | 2661 ft | 130 kts | 332° |
| 2026-04-19 09:23 | -27.34877 | 151.78119 | 2665 ft | 130 kts | 334° |
| 2026-04-19 09:23 | -27.33998 | 151.77755 | 2664 ft | 147 kts | 334° |
| 2026-04-19 09:23 | -27.32961 | 151.77278 | 2730 ft | 171 kts | 334° |
| 2026-04-19 09:23 | -27.31927 | 151.76717 | 2685 ft | 165 kts | 328° |
| 2026-04-19 09:24 | -27.30922 | 151.76110 | 2700 ft | 164 kts | 328° |
| 2026-04-19 09:24 | -27.29936 | 151.75504 | 2708 ft | 165 kts | 328° |
| 2026-04-19 09:24 | -27.28938 | 151.74879 | 2714 ft | 164 kts | 327° |
| 2026-04-19 09:24 | -27.27945 | 151.74248 | 2718 ft | 163 kts | 327° |
| 2026-04-19 09:25 | -27.26958 | 151.73610 | 2724 ft | 164 kts | 326° |
| 2026-04-19 09:25 | -27.25974 | 151.72964 | 2720 ft | 164 kts | 326° |
| 2026-04-19 09:25 | -27.24995 | 151.72311 | 2726 ft | 164 kts | 326° |
| 2026-04-19 09:25 | -27.24021 | 151.71650 | 2721 ft | 163 kts | 325° |
| 2026-04-19 09:26 | -27.23162 | 151.70907 | 2684 ft | 138 kts | 274° |
| 2026-04-19 09:26 | -27.23299 | 151.70170 | 2862 ft | 124 kts | 229° |
| 2026-04-19 09:26 | -27.23915 | 151.69346 | 1880 ft | 144 kts | 236° |
| 2026-04-19 09:26 | -27.24239 | 151.68448 | 1810 ft | 113 kts | 260° |
| 2026-04-19 09:27 | -27.23890 | 151.67992 | 1776 ft | 77 kts | 45° |
| 2026-04-19 09:27 | -27.23952 | 151.68195 | 1598 ft | 27 kts | 172° |
| 2026-04-19 09:27 | -27.23977 | 151.67942 | 1555 ft | 30 kts | 143° |
| 2026-04-19 09:27 | -27.23973 | 151.67998 | 1502 ft | 27 kts | 85° |
| 2026-04-19 09:28 | -27.23973 | 151.68102 | 1432 ft | 8 kts | 85° |
| 2026-04-19 09:28 | -27.23965 | 151.68121 | 1405 ft | 1 kts | 108° |
| 2026-04-19 09:28 | -27.23967 | 151.68127 | 1402 ft | 0 kts | 127° |
| 2026-04-19 09:31 | -27.24258 | 151.68160 | 1673 ft | 91 kts | 182° |
| 2026-04-19 09:31 | -27.25089 | 151.68044 | 1663 ft | 147 kts | 192° |
| 2026-04-19 09:31 | -27.26097 | 151.67889 | 1819 ft | 123 kts | 191° |
| 2026-04-19 09:32 | -27.26905 | 151.67809 | 1995 ft | 108 kts | 190° |
| 2026-04-19 09:32 | -27.27693 | 151.67682 | 1992 ft | 111 kts | 202° |
| 2026-04-19 09:32 | -27.28269 | 151.67499 | 2108 ft | 77 kts | 184° |
| 2026-04-19 09:32 | -27.28913 | 151.67610 | 1995 ft | 99 kts | 184° |
| 2026-04-19 09:33 | -27.29560 | 151.67584 | 1964 ft | 86 kts | 186° |
| 2026-04-19 09:33 | -27.30125 | 151.67602 | 1980 ft | 85 kts | 181° |
| 2026-04-19 09:33 | -27.30825 | 151.67752 | 2089 ft | 107 kts | 166° |
| 2026-04-19 09:33 | -27.31261 | 151.68251 | 2091 ft | 99 kts | 123° |
| 2026-04-19 09:34 | -27.31434 | 151.68974 | 1947 ft | 94 kts | 91° |
| 2026-04-19 09:34 | -27.31523 | 151.69742 | 1971 ft | 94 kts | 97° |
| 2026-04-19 09:34 | -27.31626 | 151.70445 | 1941 ft | 89 kts | 97° |
| 2026-04-19 09:34 | -27.31709 | 151.71132 | 2047 ft | 85 kts | 84° |
| 2026-04-19 09:35 | -27.31404 | 151.71629 | 2109 ft | 86 kts | 43° |
| 2026-04-19 09:35 | -27.30822 | 151.71857 | 2025 ft | 92 kts | 360° |
| 2026-04-19 09:35 | -27.30122 | 151.71842 | 1983 ft | 99 kts | 354° |
| 2026-04-19 09:35 | -27.29460 | 151.71829 | 2040 ft | 93 kts | 355° |
| 2026-04-19 09:36 | -27.28848 | 151.71891 | 2196 ft | 83 kts | 358° |
| 2026-04-19 09:36 | -27.28287 | 151.71932 | 2271 ft | 85 kts | 3° |
| 2026-04-19 09:36 | -27.27731 | 151.72001 | 2328 ft | 75 kts | 359° |
| 2026-04-19 09:36 | -27.27151 | 151.71973 | 2362 ft | 101 kts | 350° |
| 2026-04-19 09:37 | -27.26479 | 151.71911 | 2363 ft | 88 kts | 354° |
| 2026-04-19 09:37 | -27.25837 | 151.71894 | 2381 ft | 96 kts | 357° |
| 2026-04-19 09:37 | -27.25246 | 151.71948 | 2383 ft | 80 kts | 0° |
| 2026-04-19 09:37 | -27.24582 | 151.71906 | 2310 ft | 101 kts | 351° |
| 2026-04-19 09:38 | -27.23867 | 151.71827 | 2288 ft | 106 kts | 350° |
| 2026-04-19 09:38 | -27.23235 | 151.71787 | 2354 ft | 81 kts | 353° |
| 2026-04-19 09:38 | -27.22573 | 151.71691 | 2262 ft | 96 kts | 348° |
| 2026-04-19 09:38 | -27.21954 | 151.71434 | 2260 ft | 109 kts | 318° |
| 2026-04-19 09:39 | -27.21530 | 151.70829 | 2296 ft | 84 kts | 289° |
| 2026-04-19 09:39 | -27.21381 | 151.70188 | 2327 ft | 97 kts | 271° |
| 2026-04-19 09:39 | -27.21344 | 151.69353 | 2299 ft | 103 kts | 268° |
| 2026-04-19 09:39 | -27.21489 | 151.68622 | 2202 ft | 112 kts | 241° |
| 2026-04-19 09:40 | -27.22035 | 151.68160 | 2306 ft | 107 kts | 187° |
| 2026-04-19 09:40 | -27.22447 | 151.67991 | 2401 ft | 78 kts | 182° |
| 2026-04-19 09:40 | -27.23056 | 151.67803 | 1991 ft | 78 kts | 160° |
| 2026-04-19 09:40 | -27.23611 | 151.67957 | 1783 ft | 53 kts | 152° |
| 2026-04-19 09:41 | -27.23782 | 151.67869 | 1610 ft | 16 kts | 120° |
| 2026-04-19 09:41 | -27.23899 | 151.68030 | 1485 ft | 26 kts | 128° |
| 2026-04-19 09:41 | -27.23947 | 151.68124 | 1412 ft | 8 kts | 121° |
| 2026-04-19 09:41 | -27.23952 | 151.68147 | 1407 ft | 0 kts | 127° |
| 2026-04-19 09:43 | -27.24007 | 151.68147 | 1439 ft | 38 kts | 171° |
| 2026-04-19 09:43 | -27.24604 | 151.68115 | 1652 ft | 116 kts | 189° |
| 2026-04-19 09:43 | -27.25440 | 151.68043 | 1613 ft | 127 kts | 188° |
| 2026-04-19 09:44 | -27.26380 | 151.67979 | 1626 ft | 142 kts | 186° |
| 2026-04-19 09:44 | -27.27344 | 151.67902 | 1724 ft | 140 kts | 187° |
| 2026-04-19 09:44 | -27.28010 | 151.67828 | 1808 ft | 149 kts | 190° |
| 2026-04-19 09:44 | -27.29312 | 151.67664 | 1930 ft | 134 kts | 191° |
| 2026-04-19 09:45 | -27.29927 | 151.67569 | 1921 ft | 130 kts | 193° |
| 2026-04-19 09:45 | -27.31212 | 151.67377 | 1805 ft | 146 kts | 193° |
| 2026-04-19 09:45 | -27.32171 | 151.67206 | 1800 ft | 133 kts | 193° |
| 2026-04-19 09:45 | -27.33074 | 151.67077 | 1875 ft | 131 kts | 191° |
| 2026-04-19 09:46 | -27.33694 | 151.67011 | 1887 ft | 140 kts | 190° |
| 2026-04-19 09:46 | -27.34661 | 151.66961 | 1847 ft | 136 kts | 185° |
| 2026-04-19 09:46 | -27.35806 | 151.66916 | 1884 ft | 116 kts | 189° |
| 2026-04-19 09:46 | -27.36361 | 151.66881 | 1930 ft | 124 kts | 188° |
| 2026-04-19 09:47 | -27.37483 | 151.66846 | 1970 ft | 124 kts | 186° |
| 2026-04-19 09:47 | -27.38066 | 151.66878 | 1931 ft | 125 kts | 179° |
| 2026-04-19 09:47 | -27.38878 | 151.67139 | 1885 ft | 115 kts | 163° |
| 2026-04-19 09:47 | -27.39627 | 151.67943 | 2044 ft | 105 kts | 124° |
| 2026-04-19 09:48 | -27.39878 | 151.68481 | 1981 ft | 126 kts | 122° |
| 2026-04-19 09:48 | -27.40271 | 151.69277 | 1958 ft | 115 kts | 121° |
| 2026-04-19 09:48 | -27.40558 | 151.70122 | 1906 ft | 118 kts | 106° |
| 2026-04-19 09:48 | -27.40705 | 151.71087 | 1676 ft | 130 kts | 99° |
| 2026-04-19 09:49 | -27.40839 | 151.71983 | 1493 ft | 84 kts | 102° |
| 2026-04-19 09:49 | -27.40881 | 151.72369 | 1443 ft | 26 kts | 109° |
| 2026-04-19 09:49 | -27.40914 | 151.72572 | 1351 ft | 26 kts | 120° |
| 2026-04-19 09:49 | -27.40953 | 151.72797 | 1357 ft | 27 kts | 112° |
| 2026-04-19 09:50 | -27.40982 | 151.73003 | 1353 ft | 25 kts | 116° |
| 2026-04-19 09:50 | -27.41001 | 151.73143 | 1348 ft | 13 kts | 106° |
| 2026-04-19 09:50 | -27.41024 | 151.73280 | 1332 ft | 16 kts | 96° |
| 2026-04-19 09:50 | -27.41039 | 151.73388 | 1332 ft | 13 kts | 98° |
| 2026-04-19 09:51 | -27.41062 | 151.73485 | 1331 ft | 10 kts | 128° |
| 2026-04-19 09:51 | -27.41105 | 151.73491 | 1332 ft | 6 kts | 205° |
| 2026-04-19 09:51 | -27.41160 | 151.73473 | 1333 ft | 7 kts | 191° |
| 2026-04-19 09:51 | -27.41204 | 151.73465 | 1333 ft | 7 kts | 189° |
| 2026-04-19 09:52 | -27.41243 | 151.73458 | 1333 ft | 5 kts | 190° |
| 2026-04-19 09:52 | -27.41276 | 151.73452 | 1333 ft | 7 kts | 188° |
| 2026-04-19 09:52 | -27.41304 | 151.73431 | 1333 ft | 0 kts | 275° |
| 2026-04-19 09:52 | -27.41304 | 151.73428 | 1333 ft | 0 kts | 271° |
| 2026-04-19 09:53 | -27.41306 | 151.73413 | 1333 ft | 6 kts | 217° |
| 2026-04-19 09:53 | -27.41316 | 151.73388 | 1333 ft | 1 kts | 108° |
| 2026-04-19 09:53 | -27.41316 | 151.73391 | 1333 ft | 0 kts | 105° |